Time;durP1;ratioP1;P1;durP2;ratioP2;P2;SDS_P1;SDS_P2;PMS_P1;PMS_P2;Temp;Humidity;BMP_temperature;BMP_pressure;BME280_temperature;BME280_humidity;BME280_pressure;Samples;Min_cycle;Max_cycle;Signal;HPM_P1;HPM_P2
2022/05/24 00:02:04;;;;;;;91.57;46.67;;;;;;;13.48;100.00;100091.31;5038326;28;20438;-43
2022/05/24 00:04:30;;;;;;;95.97;47.85;;;;;;;13.46;100.00;100088.00;5037781;28;20028;-43
2022/05/24 00:06:56;;;;;;;85.85;44.45;;;;;;;13.44;100.00;100088.19;5038486;28;20380;-42
2022/05/24 00:09:21;;;;;;;88.13;43.70;;;;;;;13.38;100.00;100078.28;5037591;28;20135;-44
2022/05/24 00:11:46;;;;;;;85.78;44.35;;;;;;;13.33;100.00;100083.41;5039020;28;20021;-45
2022/05/24 00:14:12;;;;;;;77.40;40.25;;;;;;;13.25;100.00;100077.16;5038516;28;20021;-44
2022/05/24 00:16:37;;;;;;;83.25;40.47;;;;;;;13.22;100.00;100084.72;5036562;28;20230;-42
2022/05/24 00:19:03;;;;;;;69.68;37.08;;;;;;;13.18;100.00;100072.75;5039080;28;20104;-46
2022/05/24 00:21:28;;;;;;;69.35;35.15;;;;;;;13.11;100.00;100071.91;5037016;28;20142;-44
2022/05/24 00:23:53;;;;;;;65.07;35.08;;;;;;;13.09;100.00;100073.94;5038489;28;20025;-45
2022/05/24 00:26:37;;;;;;;70.80;34.92;;;;;;;13.07;100.00;100072.28;5020245;28;20124;-43
2022/05/24 00:29:02;;;;;;;69.57;32.10;;;;;;;13.04;100.00;100074.53;5019319;28;20428;-46
2022/05/24 00:31:28;;;;;;;62.03;31.33;;;;;;;12.99;100.00;100079.66;5016660;28;20030;-45
2022/05/24 00:33:53;;;;;;;58.45;30.88;;;;;;;12.92;100.00;100078.78;5017782;28;20387;-45
2022/05/24 00:36:18;;;;;;;66.55;30.27;;;;;;;12.86;100.00;100073.19;5016838;28;20034;-44
2022/05/24 00:38:43;;;;;;;57.25;28.50;;;;;;;12.84;100.00;100063.66;5018270;28;20441;-48
2022/05/24 00:41:30;;;;;;;54.58;28.38;;;;;;;12.78;100.00;100072.47;5000026;28;20052;-48
2022/05/24 00:44:01;;;;;;;63.17;28.00;;;;;;;12.73;100.00;100075.75;5017744;28;20021;-46
2022/05/24 00:46:40;;;;;;;53.90;26.58;;;;;;;12.68;100.00;100076.34;5016024;28;20417;-43
2022/05/24 00:49:16;;;;;;;57.67;26.75;;;;;;;12.62;100.00;100069.06;5017814;28;20176;-45
2022/05/24 00:51:51;;;;;;;51.63;25.17;;;;;;;12.56;100.00;100063.66;5018170;28;20117;-46
2022/05/24 00:54:16;;;;;;;62.38;26.30;;;;;;;12.56;100.00;100077.03;5016433;28;20021;-44
2022/05/24 00:57:09;;;;;;;47.78;24.70;;;;;;;12.51;100.00;100077.63;5018043;28;20025;-44
2022/05/24 01:00:04;;;;;;;47.65;24.35;;;;;;;12.48;100.00;100076.16;4999205;28;20103;-46
2022/05/24 01:02:30;;;;;;;48.25;23.98;;;;;;;12.43;100.00;100083.13;5014825;28;20033;-44
2022/05/24 01:04:57;;;;;;;51.88;23.70;;;;;;;12.39;100.00;100080.00;5016767;28;20030;-47
2022/05/24 01:07:22;;;;;;;50.40;24.00;;;;;;;12.37;100.00;100070.50;5015667;28;20685;-45
2022/05/24 01:09:54;;;;;;;45.00;23.45;;;;;;;12.32;100.00;100063.03;5018279;28;20026;-46
2022/05/24 01:12:27;;;;;;;47.30;21.88;;;;;;;12.28;100.00;100070.63;5016964;28;20033;-43
2022/05/24 01:14:56;;;;;;;52.55;22.33;;;;;;;12.25;100.00;100075.53;5017363;28;20520;-48
2022/05/24 01:17:21;;;;;;;50.88;21.33;;;;;;;12.21;100.00;100061.69;5015636;28;20065;-44
2022/05/24 01:19:48;;;;;;;38.00;19.75;;;;;;;12.18;100.00;100070.09;4997837;28;20378;-46
2022/05/24 01:22:45;;;;;;;41.47;19.65;;;;;;;12.15;100.00;100073.16;5017048;28;20017;-47
2022/05/24 01:25:16;;;;;;;38.83;17.52;;;;;;;12.11;100.00;100074.56;5017364;28;20022;-45
2022/05/24 01:27:41;;;;;;;43.72;17.67;;;;;;;12.06;100.00;100066.28;5017454;28;20044;-44
2022/05/24 01:30:08;;;;;;;35.92;16.77;;;;;;;12.04;100.00;100065.66;5016550;28;20021;-46
2022/05/24 01:38:07;;;;;;;42.90;16.10;;;;;;;11.97;100.00;100094.19;5004162;28;20041;-43
2022/05/24 01:40:33;;;;;;;33.85;15.68;;;;;;;11.94;100.00;100084.69;5036169;28;20055;-47
2022/05/24 01:42:58;;;;;;;39.92;14.55;;;;;;;11.89;100.00;100079.84;5037331;28;20036;-49
2022/05/24 01:45:31;;;;;;;29.48;13.00;;;;;;;11.89;100.00;100089.75;5036794;28;20442;-46
2022/05/24 01:48:05;;;;;;;30.80;13.43;;;;;;;11.86;100.00;100092.78;5036336;28;20013;-44
2022/05/24 01:50:33;;;;;;;37.92;13.80;;;;;;;11.85;100.00;100094.63;5035698;28;20037;-45
2022/05/24 01:53:05;;;;;;;26.85;11.93;;;;;;;11.84;100.00;100084.13;5036031;28;20080;-46
2022/05/24 01:55:40;;;;;;;33.50;12.57;;;;;;;11.80;100.00;100085.53;5035467;28;20098;-45
2022/05/24 01:58:10;;;;;;;27.63;12.57;;;;;;;11.77;100.00;100089.38;5036450;28;20048;-48
2022/05/24 02:00:36;;;;;;;29.77;13.20;;;;;;;11.76;100.00;100095.75;5035815;28;20124;-46
2022/05/24 02:03:02;;;;;;;31.30;12.10;;;;;;;11.71;100.00;100080.28;5037007;28;20556;-46
2022/05/24 02:05:28;;;;;;;25.08;11.77;;;;;;;11.67;100.00;100073.63;5035638;28;20029;-46
2022/05/24 02:07:54;;;;;;;27.85;11.38;;;;;;;11.64;100.00;100084.69;5035870;28;20021;-46
2022/05/24 02:10:19;;;;;;;30.80;11.93;;;;;;;11.63;100.00;100074.22;5032495;28;20048;-46
2022/05/24 02:12:51;;;;;;;26.58;9.82;;;;;;;11.61;100.00;100077.06;5016396;28;20075;-46
2022/05/24 02:15:23;;;;;;;31.30;10.52;;;;;;;11.56;100.00;100071.44;5016346;28;20346;-45
2022/05/24 02:17:58;;;;;;;27.45;9.82;;;;;;;11.60;100.00;100090.63;5015596;28;20034;-46
2022/05/24 02:20:34;;;;;;;26.02;8.80;;;;;;;11.61;100.00;100085.09;5015717;28;20160;-44
2022/05/24 02:23:00;;;;;;;26.55;9.45;;;;;;;11.60;100.00;100080.75;5015367;28;20033;-44
2022/05/24 02:25:34;;;;;;;24.15;9.25;;;;;;;11.61;100.00;100092.25;5014938;28;20347;-45
2022/05/24 02:27:59;;;;;;;28.55;8.52;;;;;;;11.66;100.00;100090.72;5016199;28;20097;-44
2022/05/24 02:30:28;;;;;;;24.10;8.35;;;;;;;11.65;100.00;100091.72;4997669;28;20190;-44
2022/05/24 02:32:54;;;;;;;23.00;8.25;;;;;;;11.64;100.00;100082.03;5027432;28;20603;-43
2022/05/24 02:35:19;;;;;;;23.35;8.25;;;;;;;11.64;100.00;100082.03;5035717;28;20021;-46
2022/05/24 02:37:45;;;;;;;24.33;8.07;;;;;;;11.62;100.00;100070.69;5000484;28;20033;-46
2022/05/24 02:42:55;;;;;;;24.23;7.82;;;;;;;11.58;100.00;100088.97;5036036;28;20094;-44
2022/05/24 02:45:20;;;;;;;22.20;7.00;;;;;;;11.55;100.00;100094.66;5035134;28;20029;-45
2022/05/24 02:47:46;;;;;;;22.58;7.63;;;;;;;11.54;100.00;100086.84;5035234;28;20017;-43
2022/05/24 02:50:11;;;;;;;17.48;6.80;;;;;;;11.54;100.00;100089.50;5035910;28;20033;-46
2022/05/24 02:52:40;;;;;;;22.75;6.70;;;;;;;11.55;100.00;100091.19;5034055;28;20044;-45
2022/05/24 02:55:11;;;;;;;17.10;5.82;;;;;;;11.54;100.00;100087.69;5036068;28;20432;-45
2022/05/24 02:57:38;;;;;;;21.27;6.30;;;;;;;11.57;100.00;100086.47;5013788;28;20131;-44
2022/05/24 03:00:06;;;;;;;22.67;6.47;;;;;;;11.57;100.00;100095.34;5023031;28;20059;-44
2022/05/24 03:02:31;;;;;;;16.95;6.15;;;;;;;11.60;100.00;100095.97;5031276;28;20025;-42
2022/05/24 03:04:56;;;;;;;25.55;6.32;;;;;;;11.61;100.00;100093.13;5015609;28;20099;-47
2022/05/24 03:10:06;;;;;;;22.90;5.95;;;;;;;11.65;100.00;100082.88;5016152;28;20043;-46
2022/05/24 03:15:15;;;;;;;25.13;6.07;;;;;;;11.66;100.00;100097.88;5015621;28;20131;-46
2022/05/24 03:17:40;;;;;;;15.60;5.60;;;;;;;11.70;100.00;100099.19;5014777;28;20069;-45
2022/05/24 03:20:06;;;;;;;18.90;5.28;;;;;;;11.70;100.00;100096.50;5015719;28;20488;-43
2022/05/24 03:22:31;;;;;;;17.73;5.55;;;;;;;11.71;100.00;100095.47;4995668;28;20033;-46
2022/05/24 03:24:57;;;;;;;19.88;5.45;;;;;;;11.66;100.00;100096.06;5015789;28;20555;-43
2022/05/24 03:27:22;;;;;;;22.95;5.90;;;;;;;11.64;100.00;100092.72;5014492;28;20021;-44
2022/05/24 03:29:48;;;;;;;24.27;6.00;;;;;;;11.62;100.00;100099.28;5015067;28;20033;-43
2022/05/24 03:32:15;;;;;;;20.83;5.93;;;;;;;11.60;100.00;100101.31;5015236;28;20025;-44
2022/05/24 03:34:41;;;;;;;23.60;6.18;;;;;;;11.60;100.00;100104.00;5015377;28;20295;-45
2022/05/24 03:37:06;;;;;;;25.33;6.30;;;;;;;11.62;100.00;100102.78;5015215;28;20038;-44
2022/05/24 03:39:33;;;;;;;21.45;6.75;;;;;;;11.65;100.00;100110.44;5013957;28;20021;-45
2022/05/24 03:41:58;;;;;;;20.80;6.82;;;;;;;11.68;100.00;100099.38;5016626;28;20145;-47
2022/05/24 03:44:23;;;;;;;19.92;6.35;;;;;;;11.70;100.00;100097.34;5018460;28;20033;-45
2022/05/24 03:46:49;;;;;;;20.90;7.13;;;;;;;11.73;100.00;100102.31;5018139;28;20183;-43
2022/05/24 03:49:14;;;;;;;17.80;6.13;;;;;;;11.73;100.00;100101.50;5019136;28;20084;-44
2022/05/24 03:51:41;;;;;;;20.33;6.45;;;;;;;11.73;100.00;100099.63;5017588;28;20021;-42
2022/05/24 03:54:07;;;;;;;29.83;6.60;;;;;;;11.75;100.00;100108.31;5018328;28;20021;-44
2022/05/24 03:56:33;;;;;;;20.30;7.13;;;;;;;11.80;100.00;100106.94;5018231;28;20104;-45
2022/05/24 03:58:59;;;;;;;30.35;7.97;;;;;;;11.79;100.00;100114.09;5018779;28;20045;-46
2022/05/24 04:01:24;;;;;;;28.90;7.45;;;;;;;11.82;100.00;100123.63;5028665;28;20382;-44
2022/05/24 04:03:50;;;;;;;31.10;8.70;;;;;;;11.81;100.00;100141.50;5038788;28;20144;-44
2022/05/24 04:06:15;;;;;;;22.75;8.63;;;;;;;11.79;100.00;100138.19;5019394;28;20028;-44
2022/05/24 04:08:41;;;;;;;20.98;7.90;;;;;;;11.84;100.00;100129.59;5038646;28;20034;-46
2022/05/24 04:11:10;;;;;;;23.83;8.35;;;;;;;11.81;100.00;100146.84;5011099;28;20116;-46
2022/05/24 04:13:37;;;;;;;24.88;7.88;;;;;;;11.79;100.00;100148.88;5000020;28;20022;-46
2022/05/24 04:16:03;;;;;;;24.13;8.18;;;;;;;11.76;100.00;100152.78;5018137;28;20025;-46
2022/05/24 04:18:29;;;;;;;20.08;7.57;;;;;;;11.76;100.00;100154.59;5000358;28;20128;-45
2022/05/24 04:20:54;;;;;;;20.33;8.00;;;;;;;11.76;100.00;100165.31;5018764;28;20037;-43
2022/05/24 04:23:21;;;;;;;28.80;8.75;;;;;;;11.74;100.00;100159.31;5016848;28;20017;-46
2022/05/24 04:25:47;;;;;;;14.02;8.20;;;;;;;11.73;100.00;100155.81;5019268;28;20071;-44
2022/05/24 04:28:13;;;;;;;22.52;7.80;;;;;;;11.73;100.00;100136.28;5037820;28;20048;-47
2022/05/24 04:30:38;;;;;;;22.48;8.80;;;;;;;11.72;100.00;100116.69;5037172;28;20268;-45
2022/05/24 04:33:04;;;;;;;23.17;8.77;;;;;;;11.71;100.00;100122.22;5038448;28;20120;-44
2022/05/24 04:35:29;;;;;;;28.98;9.02;;;;;;;11.68;100.00;100114.59;5037398;28;20048;-45
2022/05/24 04:37:55;;;;;;;23.90;9.35;;;;;;;11.65;100.00;100129.16;5037007;28;20127;-45
2022/05/24 04:42:18;;;;;;;24.48;8.85;;;;;;;11.63;100.00;100133.06;5008203;28;20029;-46
2022/05/24 04:43:05;;;;;;;21.65;9.57;;;;;;;11.62;100.00;100164.28;5026683;28;20044;-44
2022/05/24 04:45:31;;;;;;;23.27;10.13;;;;;;;11.63;100.00;100183.88;5007829;28;20325;-46
2022/05/24 04:47:56;;;;;;;28.08;9.00;;;;;;;11.62;100.00;100180.34;5038066;28;20085;-44
2022/05/24 04:50:21;;;;;;;29.02;9.38;;;;;;;11.60;100.00;100158.31;5019196;28;20035;-43
2022/05/24 04:52:47;;;;;;;27.40;9.60;;;;;;;11.60;100.00;100152.13;5037105;28;20581;-43
2022/05/24 04:55:14;;;;;;;19.27;8.73;;;;;;;11.61;100.00;100151.09;5036405;28;20207;-43
2022/05/24 04:57:39;;;;;;;23.90;9.27;;;;;;;11.57;100.00;100162.19;5037282;28;20087;-44
2022/05/24 05:00:07;;;;;;;19.50;8.60;;;;;;;11.53;100.00;100174.25;5032235;28;20147;-46
2022/05/24 05:02:32;;;;;;;24.20;8.57;;;;;;;11.54;100.00;100183.97;5026860;28;20470;-45
2022/05/24 05:04:57;;;;;;;24.10;8.40;;;;;;;11.56;100.00;100195.28;5037879;28;20017;-44
2022/05/24 05:07:23;;;;;;;22.67;8.00;;;;;;;11.55;100.00;100190.94;5035660;28;20124;-44
2022/05/24 05:09:50;;;;;;;25.27;7.90;;;;;;;11.55;100.00;100203.50;5029630;28;20047;-44
2022/05/24 05:12:17;;;;;;;31.48;8.40;;;;;;;11.58;100.00;100209.31;5036437;28;20032;-44
2022/05/24 05:14:43;;;;;;;18.88;7.15;;;;;;;11.58;100.00;100209.31;5036462;28;20037;-43
2022/05/24 05:17:09;;;;;;;26.13;7.60;;;;;;;11.61;100.00;100209.94;5026885;28;20349;-43
2022/05/24 05:19:34;;;;;;;27.15;7.43;;;;;;;11.63;100.00;100224.00;5016694;28;20044;-45
2022/05/24 05:22:02;;;;;;;23.58;7.28;;;;;;;11.64;100.00;100233.66;5000303;28;20080;-44
2022/05/24 05:24:27;;;;;;;23.90;7.03;;;;;;;11.63;100.00;100232.84;5028725;28;20041;-43
2022/05/24 05:26:53;;;;;;;20.98;6.95;;;;;;;11.64;100.00;100225.63;5021730;28;20275;-47
2022/05/24 05:31:16;;;;;;;23.00;7.13;;;;;;;11.66;100.00;100227.13;5027120;28;20426;-44
2022/05/24 05:32:04;;;;;;;22.23;7.47;;;;;;;11.69;100.00;100207.19;5021350;28;20460;-44
2022/05/24 05:34:29;;;;;;;19.13;6.80;;;;;;;11.72;100.00;100210.31;5014730;28;20122;-46
2022/05/24 05:36:54;;;;;;;24.38;7.00;;;;;;;11.72;100.00;100220.19;4998824;28;20441;-46
2022/05/24 05:39:19;;;;;;;22.40;7.22;;;;;;;11.70;100.00;100206.19;5029024;28;20322;-45
2022/05/24 05:41:45;;;;;;;22.70;6.97;;;;;;;11.70;100.00;100207.00;5030961;28;20096;-43
2022/05/24 05:44:10;;;;;;;20.15;5.97;;;;;;;11.72;100.00;100202.28;5036083;28;20450;-45
2022/05/24 05:46:36;;;;;;;17.25;5.95;;;;;;;11.75;100.00;100203.78;5034436;28;20017;-43
2022/05/24 05:49:01;;;;;;;19.70;6.57;;;;;;;11.75;100.00;100207.28;5034176;28;20463;-44
2022/05/24 05:51:26;;;;;;;21.15;6.15;;;;;;;11.82;100.00;100207.38;5034178;28;20669;-44
2022/05/24 05:53:52;;;;;;;24.48;6.15;;;;;;;11.81;100.00;100210.22;5035535;28;20056;-45
2022/05/24 05:56:20;;;;;;;17.10;5.35;;;;;;;11.80;100.00;100220.13;5035320;28;20104;-46
2022/05/24 05:58:46;;;;;;;19.10;5.00;;;;;;;11.76;100.00;100224.16;5035270;28;20041;-44
2022/05/24 06:01:16;;;;;;;19.17;5.57;;;;;;;11.73;100.00;100248.63;5035146;28;20027;-46
2022/05/24 06:03:42;;;;;;;16.45;5.30;;;;;;;11.70;100.00;100248.97;5036196;28;20140;-44
2022/05/24 06:06:09;;;;;;;15.60;5.07;;;;;;;11.65;100.00;100256.72;5034476;28;20033;-44
2022/05/24 06:08:35;;;;;;;19.25;4.50;;;;;;;11.63;100.00;100256.91;5035147;28;20021;-44
2022/05/24 06:11:00;;;;;;;17.08;4.15;;;;;;;11.64;100.00;100265.75;5035966;28;20388;-45
2022/05/24 06:13:25;;;;;;;17.92;4.30;;;;;;;11.66;100.00;100253.88;5031987;28;20037;-47
2022/05/24 06:15:51;;;;;;;17.75;4.50;;;;;;;11.67;100.00;100258.19;5032069;28;20025;-44
2022/05/24 06:18:17;;;;;;;16.85;4.75;;;;;;;11.68;100.00;100265.22;5035315;28;20489;-44
2022/05/24 06:20:42;;;;;;;17.95;4.90;;;;;;;11.70;100.00;100273.88;5028696;28;20037;-44
2022/05/24 06:23:07;;;;;;;18.90;4.82;;;;;;;11.75;100.00;100266.13;5015488;28;20510;-43
2022/05/24 06:25:33;;;;;;;19.65;5.20;;;;;;;11.86;100.00;100275.56;5033284;28;20099;-47
2022/05/24 06:27:59;;;;;;;19.85;5.57;;;;;;;11.86;100.00;100261.34;5025295;28;20797;-45
2022/05/24 06:30:25;;;;;;;21.23;6.68;;;;;;;12.00;100.00;100260.56;5033618;28;20235;-43
2022/05/24 06:32:51;;;;;;;16.90;6.68;;;;;;;12.17;100.00;100271.91;5014956;28;20040;-43
2022/05/24 06:35:18;;;;;;;21.67;6.93;;;;;;;12.32;100.00;100271.88;5034632;28;20515;-43
2022/05/24 06:37:43;;;;;;;17.73;7.50;;;;;;;12.49;100.00;100275.16;5031396;28;20048;-42
2022/05/24 06:40:11;;;;;;;14.23;6.32;;;;;;;12.58;100.00;100276.75;5032918;28;20025;-46
2022/05/24 06:42:37;;;;;;;19.42;7.07;;;;;;;12.59;100.00;100277.56;5030653;28;20132;-43
2022/05/24 06:45:04;;;;;;;21.83;7.10;;;;;;;12.68;100.00;100282.63;5031400;28;20194;-46
2022/05/24 06:47:29;;;;;;;17.60;7.07;;;;;;;12.74;100.00;100293.59;5032612;28;20028;-43
2022/05/24 06:49:55;;;;;;;20.88;7.00;;;;;;;12.86;100.00;100284.91;5032855;28;20351;-47
2022/05/24 06:52:21;;;;;;;21.73;6.85;;;;;;;12.83;100.00;100292.47;5031707;28;20023;-46
2022/05/24 06:54:47;;;;;;;23.92;6.82;;;;;;;13.00;100.00;100298.41;5031059;28;20021;-45
2022/05/24 06:57:12;;;;;;;14.75;5.90;;;;;;;13.11;100.00;100303.28;5012513;28;20037;-43
2022/05/24 07:02:27;;;;;;;20.08;7.20;;;;;;;13.22;100.00;100318.00;5032367;28;20043;-47
2022/05/24 07:04:57;;;;;;;;;;;;;;;13.32;100.00;100318.56;5030708;28;20163;-43
2022/05/24 07:07:24;;;;;;;12.88;6.18;;;;;;;13.26;100.00;100327.34;5031553;28;19939;-45
2022/05/24 07:09:50;;;;;;;16.65;5.07;;;;;;;13.32;100.00;100331.97;5032182;28;20539;-45
2022/05/24 07:12:18;;;;;;;10.23;5.03;;;;;;;13.35;100.00;100330.75;5024339;28;20044;-43
2022/05/24 07:14:43;;;;;;;19.17;6.30;;;;;;;13.46;100.00;100341.00;5024904;28;20028;-49
2022/05/24 07:17:08;;;;;;;16.25;6.25;;;;;;;13.53;100.00;100349.09;5023418;28;20032;-44
2022/05/24 07:19:33;;;;;;;21.92;8.30;;;;;;;13.48;100.00;100340.81;5037044;28;20429;-45
2022/05/24 07:21:59;;;;;;;19.48;8.65;;;;;;;13.42;100.00;100342.38;5019612;28;20124;-45
2022/05/24 07:24:24;;;;;;;19.15;9.30;;;;;;;13.49;100.00;100345.94;5036542;28;20048;-46
2022/05/24 07:26:49;;;;;;;14.70;8.18;;;;;;;13.46;100.00;100349.03;5038716;28;20310;-45
2022/05/24 07:29:15;;;;;;;13.25;7.57;;;;;;;13.50;100.00;100350.31;5038551;28;20079;-44
2022/05/24 07:31:40;;;;;;;14.73;7.55;;;;;;;13.50;100.00;100344.94;5019485;28;20187;-43
2022/05/24 07:34:06;;;;;;;18.55;8.02;;;;;;;13.55;100.00;100352.41;5029298;28;20541;-45
2022/05/24 07:36:31;;;;;;;21.58;8.35;;;;;;;13.59;100.00;100356.34;5036005;28;20026;-45
2022/05/24 07:38:58;;;;;;;22.60;7.97;;;;;;;13.67;100.00;100356.22;5019548;28;20013;-45
2022/05/24 07:46:52;;;;;;;14.52;8.05;;;;;;;14.26;100.00;100357.69;5037652;28;20383;-47
2022/05/24 07:49:17;;;;;;;12.88;7.90;;;;;;;14.33;100.00;100353.19;5027830;28;20025;-43
2022/05/24 07:51:42;;;;;;;15.23;8.30;;;;;;;14.22;100.00;100361.78;5012450;28;20041;-44
2022/05/24 07:54:08;;;;;;;17.35;8.50;;;;;;;14.00;100.00;100358.34;5037232;28;20055;-44
2022/05/24 07:56:33;;;;;;;18.45;8.32;;;;;;;14.02;100.00;100364.34;5031575;28;20029;-44
2022/05/24 07:58:58;;;;;;;14.07;8.60;;;;;;;14.16;100.00;100363.41;5036293;28;20048;-43
2022/05/24 08:01:24;;;;;;;13.73;8.63;;;;;;;14.31;100.00;100360.63;5036080;28;20039;-43
2022/05/24 08:03:50;;;;;;;11.70;8.57;;;;;;;14.36;100.00;100360.84;5039147;28;20732;-46
2022/05/24 08:06:17;;;;;;;17.45;8.45;;;;;;;14.33;99.20;100368.47;5037597;28;20406;-46
2022/05/24 08:08:43;;;;;;;15.02;7.85;;;;;;;14.36;100.00;100370.78;5037756;28;20449;-46
2022/05/24 08:11:09;;;;;;;11.55;7.85;;;;;;;14.43;100.00;100368.13;5038207;28;20029;-44
2022/05/24 08:13:35;;;;;;;12.65;7.47;;;;;;;14.64;98.00;100383.34;5038427;28;20059;-47
2022/05/24 08:16:01;;;;;;;13.27;7.00;;;;;;;14.70;98.36;100372.63;5038320;28;20024;-49
2022/05/24 08:18:26;;;;;;;13.30;6.82;;;;;;;14.69;96.76;100379.03;5037950;28;20021;-44
2022/05/24 08:20:53;;;;;;;11.60;6.45;;;;;;;14.84;95.69;100370.81;5038834;28;20441;-46
2022/05/24 08:23:20;;;;;;;8.48;5.32;;;;;;;14.91;93.96;100382.44;5037116;28;20021;-45
2022/05/24 08:25:45;;;;;;;9.73;5.03;;;;;;;14.83;93.41;100387.97;5038858;28;20075;-46
2022/05/24 08:28:11;;;;;;;6.97;4.50;;;;;;;14.72;95.30;100383.19;5039012;28;20509;-44
2022/05/24 08:30:38;;;;;;;6.68;4.70;;;;;;;14.66;96.01;100389.34;5037139;28;20203;-43
2022/05/24 08:33:06;;;;;;;10.90;4.32;;;;;;;14.67;94.60;100393.72;5038481;28;20132;-48
2022/05/24 08:35:33;;;;;;;11.77;5.03;;;;;;;14.88;94.62;100407.06;5037493;28;20455;-45
2022/05/24 08:38:00;;;;;;;11.68;5.18;;;;;;;14.99;94.89;100408.31;5037253;28;20108;-44
2022/05/24 08:40:25;;;;;;;6.47;4.75;;;;;;;14.86;92.94;100413.66;5037479;28;20578;-46
2022/05/24 08:43:09;;;;;;;11.73;4.85;;;;;;;14.73;93.39;100419.78;5038201;28;20103;-43
2022/05/24 08:48:54;;;;;;;10.85;6.88;;;;;;;14.63;96.63;100422.84;5033153;28;20126;-44
2022/05/24 08:51:24;;;;;;;11.27;6.63;;;;;;;14.70;96.07;100430.94;5037046;28;20545;-47
2022/05/24 08:53:53;;;;;;;9.30;6.28;;;;;;;14.84;93.49;100440.72;5037473;28;20421;-45
2022/05/24 08:56:30;;;;;;;9.15;6.13;;;;;;;15.01;94.15;100448.47;5037699;28;20029;-44
2022/05/24 08:59:21;;;;;;;9.18;6.47;;;;;;;14.94;95.56;100450.31;5038064;28;20495;-45
2022/05/24 09:01:48;;;;;;;;;;;;;;;14.97;95.51;100450.72;5026868;28;20043;-45
2022/05/24 09:04:14;;;;;;;14.65;6.00;;;;;;;15.21;96.93;100465.53;5038007;28;19999;-44
2022/05/24 09:06:51;;;;;;;11.88;6.38;;;;;;;15.28;89.70;100469.06;5019007;28;20025;-44
2022/05/24 09:09:38;;;;;;;17.23;6.18;;;;;;;15.41;92.91;100449.44;5033039;28;20031;-44
2022/05/24 09:12:37;;;;;;;14.40;6.57;;;;;;;15.22;92.15;100466.34;5036587;28;20032;-47
2022/05/24 09:15:15;;;;;;;12.88;6.28;;;;;;;15.39;92.86;100477.56;5037167;28;20017;-44
2022/05/24 09:18:06;;;;;;;12.70;6.25;;;;;;;15.52;91.98;100474.94;5036418;28;20052;-45
2022/05/24 09:20:38;;;;;;;;;;;;;;;15.62;90.96;100488.81;5036256;28;20483;-45
2022/05/24 09:23:14;;;;;;;9.65;6.75;;;;;;;15.40;87.38;100480.06;5034378;28;19905;-44
2022/05/24 09:26:08;;;;;;;10.88;6.82;;;;;;;15.17;88.77;100491.13;5033971;28;20029;-45
2022/05/24 09:28:47;;;;;;;14.88;7.55;;;;;;;15.10;89.92;100490.28;5036184;28;20450;-47
2022/05/24 09:31:21;;;;;;;11.15;6.18;;;;;;;15.02;89.42;100490.44;5036106;28;20049;-46
2022/05/24 09:33:53;;;;;;;9.63;6.43;;;;;;;15.09;91.71;100496.72;5035809;28;20515;-44
2022/05/24 09:36:32;;;;;;;8.30;5.68;;;;;;;15.11;90.69;100502.72;5032672;28;20245;-45
2022/05/24 09:38:59;;;;;;;10.30;5.80;;;;;;;14.85;91.34;100500.69;5034050;28;20108;-46
2022/05/24 09:41:26;;;;;;;10.57;6.30;;;;;;;14.77;94.35;100499.00;5035134;28;20028;-45
2022/05/24 09:44:13;;;;;;;15.15;7.85;;;;;;;14.92;92.44;100507.78;5037230;28;20021;-46
2022/05/24 09:46:42;;;;;;;11.68;7.65;;;;;;;15.20;90.09;100517.66;5007346;28;20033;-45
2022/05/24 09:49:22;;;;;;;10.73;7.95;;;;;;;15.18;89.17;100522.41;5019923;28;20666;-44
2022/05/24 09:51:50;;;;;;;10.30;6.75;;;;;;;15.11;88.86;100521.53;5036568;28;20024;-46
2022/05/24 09:54:18;;;;;;;12.48;6.95;;;;;;;15.40;90.06;100516.91;5035643;28;20040;-46
2022/05/24 09:57:04;;;;;;;12.63;6.35;;;;;;;15.60;89.47;100528.59;5038063;28;20055;-45
2022/05/24 09:59:30;;;;;;;8.40;5.63;;;;;;;15.83;87.10;100528.28;5036179;28;20675;-46
2022/05/24 10:01:56;;;;;;;9.10;5.80;;;;;;;15.94;86.76;100529.53;5036482;28;20383;-46
2022/05/24 10:04:35;;;;;;;7.43;6.18;;;;;;;15.89;90.11;100526.63;5033791;28;20052;-45
2022/05/24 10:07:03;;;;;;;11.10;5.90;;;;;;;15.57;88.31;100528.97;5035188;28;20033;-46
2022/05/24 10:09:59;;;;;;;11.52;5.40;;;;;;;15.57;89.21;100528.16;5016650;28;20423;-46
2022/05/24 10:12:40;;;;;;;9.55;4.28;;;;;;;15.17;88.71;100528.81;5015933;28;20151;-44
2022/05/24 10:15:21;;;;;;;7.80;3.83;;;;;;;15.24;90.83;100540.44;5032720;28;20458;-48
2022/05/24 10:17:46;;;;;;;;;;;;;;;15.14;89.25;100544.50;5033510;28;20083;-47
2022/05/24 10:20:21;;;;;;;5.10;2.10;;;;;;;14.95;87.87;100544.19;5035976;28;19913;-45
2022/05/24 10:23:07;;;;;;;4.72;2.22;;;;;;;14.95;88.27;100554.13;5036308;28;20517;-45
2022/05/24 10:25:53;;;;;;;5.15;2.00;;;;;;;15.37;86.85;100549.59;5036391;28;20080;-47
2022/05/24 10:28:34;;;;;;;3.17;1.98;;;;;;;15.60;86.50;100550.13;5029430;28;20099;-47
2022/05/24 10:31:11;;;;;;;4.50;2.17;;;;;;;15.48;84.83;100565.19;5032613;28;20333;-46
2022/05/24 10:39:39;;;;;;;4.38;1.67;;;;;;;14.84;90.34;100567.09;5035046;28;20499;-47
2022/05/24 10:42:43;;;;;;;2.97;1.10;;;;;;;14.82;86.06;100579.09;5036777;28;20041;-47
2022/05/24 10:45:17;;;;;;;1.17;0.95;;;;;;;14.79;84.73;100579.47;5029825;28;20048;-48
2022/05/24 10:48:07;;;;;;;3.10;1.10;;;;;;;14.90;84.38;100585.13;5034280;28;20025;-47
2022/05/24 10:50:48;;;;;;;2.42;1.10;;;;;;;14.99;84.72;100588.50;5037228;28;20565;-47
2022/05/24 10:53:24;;;;;;;3.60;1.50;;;;;;;15.29;86.67;100582.88;5030304;28;20033;-45
2022/05/24 10:56:01;;;;;;;3.92;1.50;;;;;;;15.43;84.21;100583.81;5032189;28;20059;-46
2022/05/24 10:58:32;;;;;;;2.75;1.50;;;;;;;15.50;82.95;100578.44;5038812;28;20049;-44
2022/05/24 11:01:13;;;;;;;7.55;1.83;;;;;;;15.82;84.32;100568.88;5021699;28;20032;-43
2022/05/24 11:03:47;;;;;;;5.97;1.80;;;;;;;16.19;79.86;100574.75;5037861;28;20130;-46
2022/05/24 11:06:13;;;;;;;1.83;1.70;;;;;;;16.30;78.44;100565.25;5037321;28;20105;-46
2022/05/24 11:08:50;;;;;;;3.72;1.90;;;;;;;16.56;77.23;100576.03;5038775;28;20494;-48
2022/05/24 11:11:46;;;;;;;5.75;1.88;;;;;;;16.74;79.76;100569.19;5037261;28;20032;-45
2022/05/24 11:14:35;;;;;;;3.15;2.53;;;;;;;17.25;75.90;100565.78;5036105;28;20028;-45
2022/05/24 11:17:01;;;;;;;5.45;2.67;;;;;;;17.46;75.22;100561.97;5022951;28;20025;-45
2022/05/24 11:19:38;;;;;;;7.00;2.70;;;;;;;17.95;76.27;100559.69;5022045;28;20750;-45
2022/05/24 11:22:24;;;;;;;8.05;3.00;;;;;;;17.76;75.38;100569.53;5040988;28;20066;-47
2022/05/24 11:25:00;;;;;;;2.60;1.80;;;;;;;16.86;78.17;100585.59;5040824;28;20047;-44
2022/05/24 11:27:33;;;;;;;5.72;2.97;;;;;;;16.47;87.64;100587.22;5040300;28;20593;-44
2022/05/24 11:30:31;;;;;;;8.02;3.03;;;;;;;15.78;92.27;100581.06;5041025;28;20492;-43
2022/05/24 11:33:02;;;;;;;7.30;2.67;;;;;;;15.46;93.51;100583.38;5041515;28;20033;-45
2022/05/24 11:35:35;;;;;;;5.78;2.70;;;;;;;15.55;99.80;100594.84;5039915;28;20140;-42
2022/05/24 11:38:09;;;;;;;4.05;2.70;;;;;;;15.99;100.00;100591.69;5040635;28;20506;-45
2022/05/24 11:41:12;;;;;;;4.18;3.10;;;;;;;16.42;97.79;100588.66;5040610;28;20033;-43
2022/05/24 11:43:43;;;;;;;4.18;2.90;;;;;;;16.70;95.20;100589.50;5014328;28;20116;-45
2022/05/24 11:46:10;;;;;;;3.60;2.60;;;;;;;16.95;89.55;100589.72;5023695;28;20079;-44
2022/05/24 11:48:45;;;;;;;3.28;2.63;;;;;;;17.21;85.35;100582.63;5019428;28;20029;-47
2022/05/24 11:51:32;;;;;;;4.63;3.10;;;;;;;17.76;90.72;100587.63;5018861;28;20033;-47
2022/05/24 11:54:00;;;;;;;4.57;2.53;;;;;;;17.94;82.68;100589.63;5018559;28;20018;-44
2022/05/24 11:56:28;;;;;;;4.30;2.60;;;;;;;18.34;79.80;100589.41;5018774;28;20535;-46